Time;durP1;ratioP1;P1;durP2;ratioP2;P2;SDS_P1;SDS_P2;PMS_P1;PMS_P2;Temp;Humidity;BMP_temperature;BMP_pressure;BME280_temperature;BME280_humidity;BME280_pressure;Samples;Min_cycle;Max_cycle;Signal;HPM_P1;HPM_P2
2023/09/14 00:00:21;;;;;;;15.32;6.80;;;;;;;;;;5076437;28;20115;-64
2023/09/14 00:02:48;;;;;;;12.40;7.80;;;;;;;;;;5077519;28;20126;-64
2023/09/14 00:05:15;;;;;;;13.77;7.50;;;;;;;;;;5093032;28;20032;-64
2023/09/14 00:07:41;;;;;;;15.13;7.88;;;;;;;;;;5093851;28;20127;-64
2023/09/14 00:10:07;;;;;;;9.80;6.82;;;;;;;;;;5092533;28;20119;-65
2023/09/14 00:12:32;;;;;;;12.82;7.25;;;;;;;;;;5076682;28;20080;-64
2023/09/14 00:14:58;;;;;;;13.90;7.28;;;;;;;;;;5093432;28;20058;-65
2023/09/14 00:17:24;;;;;;;12.70;7.55;;;;;;;;;;5096417;28;20046;-64
2023/09/14 00:19:50;;;;;;;12.93;7.82;;;;;;;;;;5095922;28;20043;-64
2023/09/14 00:22:16;;;;;;;13.63;6.93;;;;;;;;;;5060691;28;20042;-64
2023/09/14 00:24:42;;;;;;;15.60;7.97;;;;;;;;;;5078132;28;20044;-65
2023/09/14 00:27:07;;;;;;;17.90;8.13;;;;;;;;;;5094707;28;20052;-64
2023/09/14 00:29:33;;;;;;;15.40;8.18;;;;;;;;;;5111220;28;20109;-64
2023/09/14 00:31:59;;;;;;;15.38;8.60;;;;;;;;;;5093673;28;20051;-64
2023/09/14 00:34:25;;;;;;;25.30;10.80;;;;;;;;;;5093681;28;20052;-65
2023/09/14 00:36:50;;;;;;;15.98;8.55;;;;;;;;;;5094117;28;20085;-64
2023/09/14 00:39:16;;;;;;;18.30;8.90;;;;;;;;;;5095004;28;20036;-64
2023/09/14 00:41:41;;;;;;;14.98;8.45;;;;;;;;;;5094107;28;20047;-65
2023/09/14 00:44:07;;;;;;;13.05;7.55;;;;;;;;;;5075488;28;20462;-65
2023/09/14 00:46:33;;;;;;;20.27;8.77;;;;;;;;;;5093249;28;20492;-64
2023/09/14 00:49:00;;;;;;;13.07;8.93;;;;;;;;;;5091921;28;20126;-65
2023/09/14 00:51:29;;;;;;;17.55;9.00;;;;;;;;;;5092131;28;20036;-66
2023/09/14 00:53:56;;;;;;;14.43;8.17;;;;;;;;;;5108443;28;20100;-64
2023/09/14 00:56:21;;;;;;;15.05;8.07;;;;;;;;;;5092565;28;20044;-64
2023/09/14 00:58:47;;;;;;;16.83;7.38;;;;;;;;;;5093365;28;20043;-65
2023/09/14 01:01:16;;;;;;;12.50;7.07;;;;;;;;;;5093515;28;20455;-64
2023/09/14 01:03:42;;;;;;;10.82;7.15;;;;;;;;;;5093481;28;20427;-64
2023/09/14 01:06:08;;;;;;;13.73;7.30;;;;;;;;;;5076262;28;20466;-65
2023/09/14 01:08:34;;;;;;;12.77;7.22;;;;;;;;;;5093785;28;20090;-65
2023/09/14 01:11:01;;;;;;;11.50;7.38;;;;;;;;;;5094054;28;20048;-65
2023/09/14 01:13:40;;;;;;;24.33;11.60;;;;;;;;;;5076769;28;20036;-64
2023/09/14 01:16:10;;;;;;;17.33;8.23;;;;;;;;;;5094404;28;20858;-66
2023/09/14 01:18:42;;;;;;;19.27;10.10;;;;;;;;;;5076883;28;20952;-64
2023/09/14 01:21:08;;;;;;;9.93;7.82;;;;;;;;;;5094934;28;20213;-65
2023/09/14 01:23:41;;;;;;;13.20;8.23;;;;;;;;;;5076687;28;20063;-64
2023/09/14 01:26:07;;;;;;;11.93;7.43;;;;;;;;;;5110294;28;20061;-64
2023/09/14 01:28:33;;;;;;;12.40;7.55;;;;;;;;;;5092984;28;20130;-64
2023/09/14 01:30:59;;;;;;;13.50;7.75;;;;;;;;;;5093257;28;20140;-64
2023/09/14 01:33:27;;;;;;;10.85;7.15;;;;;;;;;;5093421;28;20151;-65
2023/09/14 01:35:59;;;;;;;12.15;7.53;;;;;;;;;;5075722;28;20057;-64
2023/09/14 01:38:26;;;;;;;9.48;7.18;;;;;;;;;;5092371;28;20044;-65
2023/09/14 01:40:53;;;;;;;14.13;7.25;;;;;;;;;;5092980;28;20090;-65
2023/09/14 01:43:19;;;;;;;8.93;6.57;;;;;;;;;;5092652;28;20122;-64
2023/09/14 01:45:45;;;;;;;10.77;6.75;;;;;;;;;;5075299;28;20040;-65
2023/09/14 01:48:15;;;;;;;8.52;6.72;;;;;;;;;;5090731;28;20390;-67
2023/09/14 01:50:41;;;;;;;11.90;7.60;;;;;;;;;;5092074;28;20048;-69
2023/09/14 01:53:07;;;;;;;14.98;7.00;;;;;;;;;;5091829;28;20501;-67
2023/09/14 01:55:32;;;;;;;13.00;6.93;;;;;;;;;;5074390;28;20044;-65
2023/09/14 01:57:58;;;;;;;14.02;7.20;;;;;;;;;;5074970;28;20130;-66
2023/09/14 02:00:25;;;;;;;9.88;7.70;;;;;;;;;;5074999;28;20054;-65
2023/09/14 02:02:51;;;;;;;14.30;8.98;;;;;;;;;;5093005;28;20666;-65
2023/09/14 02:05:18;;;;;;;12.98;7.85;;;;;;;;;;5092681;28;20043;-64
2023/09/14 02:07:45;;;;;;;22.58;12.82;;;;;;;;;;5092607;28;20064;-65
2023/09/14 02:10:11;;;;;;;15.60;8.55;;;;;;;;;;5092632;28;20097;-64
2023/09/14 02:12:36;;;;;;;11.80;8.48;;;;;;;;;;5075359;28;20463;-65
2023/09/14 02:15:02;;;;;;;12.63;8.00;;;;;;;;;;5109155;28;20520;-65
2023/09/14 02:17:29;;;;;;;12.35;8.20;;;;;;;;;;5075542;28;20048;-64
2023/09/14 02:19:55;;;;;;;12.50;8.57;;;;;;;;;;5093029;28;20355;-64
2023/09/14 02:22:21;;;;;;;13.07;8.95;;;;;;;;;;5108855;28;20054;-65
2023/09/14 02:24:47;;;;;;;13.73;8.85;;;;;;;;;;5091915;28;20050;-64
2023/09/14 02:27:13;;;;;;;19.95;9.63;;;;;;;;;;5092080;28;20039;-65
2023/09/14 02:29:38;;;;;;;20.20;8.95;;;;;;;;;;5108965;28;20052;-64
2023/09/14 02:32:05;;;;;;;18.08;9.70;;;;;;;;;;5092180;28;20055;-65
2023/09/14 02:34:31;;;;;;;18.23;10.23;;;;;;;;;;5093459;28;20094;-65
2023/09/14 02:36:57;;;;;;;20.02;10.70;;;;;;;;;;5075960;28;20049;-65
2023/09/14 02:39:22;;;;;;;15.48;10.20;;;;;;;;;;5075521;28;20035;-63
2023/09/14 02:41:48;;;;;;;16.65;10.07;;;;;;;;;;5092441;28;20075;-64
2023/09/14 02:44:13;;;;;;;15.70;10.15;;;;;;;;;;5091520;28;20242;-64
2023/09/14 02:46:39;;;;;;;18.17;10.02;;;;;;;;;;5092465;28;20056;-64
2023/09/14 02:49:04;;;;;;;17.10;10.73;;;;;;;;;;5091276;28;20054;-64
2023/09/14 02:51:30;;;;;;;22.17;10.85;;;;;;;;;;5074664;28;20454;-64
2023/09/14 02:53:55;;;;;;;20.58;10.43;;;;;;;;;;5074624;28;20054;-64
2023/09/14 02:56:21;;;;;;;15.38;9.57;;;;;;;;;;5108630;28;20146;-67
2023/09/14 02:58:47;;;;;;;21.85;10.45;;;;;;;;;;5090484;28;20032;-66
2023/09/14 03:01:13;;;;;;;13.10;10.25;;;;;;;;;;5111355;28;20070;-65
2023/09/14 03:03:39;;;;;;;16.80;10.18;;;;;;;;;;5094122;28;20092;-65
2023/09/14 03:06:05;;;;;;;17.85;11.38;;;;;;;;;;5091824;28;20035;-65
2023/09/14 03:08:32;;;;;;;14.77;11.13;;;;;;;;;;5091164;28;20047;-65
2023/09/14 03:10:58;;;;;;;26.20;11.30;;;;;;;;;;5091367;28;20036;-65
2023/09/14 03:13:23;;;;;;;16.20;10.73;;;;;;;;;;5074101;28;20031;-65
2023/09/14 03:15:56;;;;;;;17.10;9.95;;;;;;;;;;5092065;28;20055;-65
2023/09/14 03:18:22;;;;;;;18.42;10.50;;;;;;;;;;5098242;28;20051;-64
2023/09/14 03:20:50;;;;;;;12.93;8.38;;;;;;;;;;5098445;28;20185;-66
2023/09/14 03:23:16;;;;;;;20.02;8.48;;;;;;;;;;5081331;28;20486;-65
2023/09/14 03:25:42;;;;;;;16.15;8.95;;;;;;;;;;5098410;28;20047;-65
2023/09/14 03:28:08;;;;;;;17.60;7.78;;;;;;;;;;5098285;28;20058;-66
2023/09/14 03:30:34;;;;;;;17.35;7.90;;;;;;;;;;5083378;28;20537;-65
2023/09/14 03:33:00;;;;;;;14.60;8.82;;;;;;;;;;5082181;28;20035;-66
2023/09/14 03:35:25;;;;;;;21.75;8.73;;;;;;;;;;5097519;28;20058;-66
2023/09/14 03:37:51;;;;;;;17.30;10.68;;;;;;;;;;5096497;28;20051;-65
2023/09/14 03:40:17;;;;;;;27.42;13.77;;;;;;;;;;5098058;28;20092;-65
2023/09/14 03:42:43;;;;;;;31.42;13.57;;;;;;;;;;5098289;28;20313;-66
2023/09/14 03:45:08;;;;;;;27.80;13.52;;;;;;;;;;5098599;28;20035;-65
2023/09/14 03:47:34;;;;;;;24.63;11.13;;;;;;;;;;5098447;28;20046;-66
2023/09/14 03:50:00;;;;;;;12.07;8.55;;;;;;;;;;5097537;28;20032;-65
2023/09/14 03:52:26;;;;;;;13.85;8.70;;;;;;;;;;5098295;28;20439;-66
2023/09/14 03:54:51;;;;;;;16.02;8.77;;;;;;;;;;5099408;28;20083;-65
2023/09/14 03:57:17;;;;;;;17.10;9.65;;;;;;;;;;5098084;28;20386;-65
2023/09/14 03:59:43;;;;;;;18.02;10.48;;;;;;;;;;5097932;28;20070;-67
2023/09/14 04:02:09;;;;;;;17.10;9.70;;;;;;;;;;5097096;28;20420;-65
2023/09/14 04:04:35;;;;;;;20.83;9.48;;;;;;;;;;5097275;28;20043;-65
2023/09/14 04:07:01;;;;;;;18.15;9.55;;;;;;;;;;5096720;28;20047;-65
2023/09/14 04:09:29;;;;;;;16.67;10.05;;;;;;;;;;5113857;28;20040;-65
2023/09/14 04:11:58;;;;;;;15.98;9.35;;;;;;;;;;5096865;28;20137;-66
2023/09/14 04:14:23;;;;;;;13.48;9.20;;;;;;;;;;5096776;28;20480;-66
2023/09/14 04:16:51;;;;;;;17.27;9.52;;;;;;;;;;5097720;28;20071;-66
2023/09/14 04:19:17;;;;;;;13.80;9.65;;;;;;;;;;5097335;28;20040;-66
2023/09/14 04:21:43;;;;;;;24.55;10.40;;;;;;;;;;5097338;28;20032;-66
2023/09/14 04:24:09;;;;;;;20.70;9.63;;;;;;;;;;5096843;28;20359;-67
2023/09/14 04:26:36;;;;;;;20.60;10.18;;;;;;;;;;5096426;28;20127;-68
2023/09/14 04:29:01;;;;;;;16.92;10.25;;;;;;;;;;5094810;28;20600;-68
2023/09/14 04:31:27;;;;;;;17.60;9.73;;;;;;;;;;5093340;28;20040;-67
2023/09/14 04:33:53;;;;;;;23.77;10.27;;;;;;;;;;5093843;28;20036;-70
2023/09/14 04:36:19;;;;;;;17.92;9.88;;;;;;;;;;5077906;28;20059;-68
2023/09/14 04:38:45;;;;;;;22.90;10.13;;;;;;;;;;5111651;28;20421;-68
2023/09/14 04:41:11;;;;;;;31.60;11.80;;;;;;;;;;5094168;28;20039;-67
2023/09/14 04:43:37;;;;;;;25.65;8.73;;;;;;;;;;5077165;28;20424;-67
2023/09/14 04:46:04;;;;;;;24.35;9.68;;;;;;;;;;5094005;28;20040;-68
2023/09/14 04:48:31;;;;;;;22.77;11.18;;;;;;;;;;5077316;28;20129;-66
2023/09/14 04:50:58;;;;;;;25.10;10.55;;;;;;;;;;5094099;28;20040;-71
2023/09/14 04:53:24;;;;;;;19.95;9.75;;;;;;;;;;5093977;28;20051;-65
2023/09/14 04:55:50;;;;;;;18.73;9.30;;;;;;;;;;5093189;28;20055;-66
2023/09/14 04:58:15;;;;;;;21.33;10.43;;;;;;;;;;5076998;28;20129;-65
2023/09/14 05:00:41;;;;;;;19.83;9.57;;;;;;;;;;5093555;28;20181;-65
2023/09/14 05:03:06;;;;;;;32.33;9.82;;;;;;;;;;5093530;28;20036;-69
2023/09/14 05:05:33;;;;;;;28.55;9.65;;;;;;;;;;5086988;28;20112;-67
2023/09/14 05:07:59;;;;;;;22.13;9.52;;;;;;;;;;5072324;28;20387;-67
2023/09/14 05:10:25;;;;;;;19.40;9.55;;;;;;;;;;5082988;28;20044;-67
2023/09/14 05:12:51;;;;;;;22.42;10.43;;;;;;;;;;5093217;28;20056;-67
2023/09/14 05:15:17;;;;;;;28.40;9.90;;;;;;;;;;5093199;28;20048;-68
2023/09/14 05:17:43;;;;;;;18.05;9.50;;;;;;;;;;5092338;28;20355;-66
2023/09/14 05:20:09;;;;;;;23.65;10.57;;;;;;;;;;5092255;28;20383;-67
2023/09/14 05:22:35;;;;;;;24.05;10.15;;;;;;;;;;5092799;28;20044;-67
2023/09/14 05:25:03;;;;;;;15.98;8.90;;;;;;;;;;5075353;28;20523;-67
2023/09/14 05:27:33;;;;;;;19.33;10.38;;;;;;;;;;5092233;28;20435;-70
2023/09/14 05:29:59;;;;;;;23.17;9.80;;;;;;;;;;5093515;28;20032;-68
2023/09/14 05:32:25;;;;;;;24.25;9.90;;;;;;;;;;5092575;28;20042;-69
2023/09/14 05:34:50;;;;;;;21.23;10.13;;;;;;;;;;5092710;28;20040;-69
2023/09/14 05:37:18;;;;;;;24.58;10.35;;;;;;;;;;5077690;28;20040;-68
2023/09/14 05:39:43;;;;;;;31.02;10.77;;;;;;;;;;5091505;28;20100;-68
2023/09/14 05:42:10;;;;;;;32.03;9.82;;;;;;;;;;5092202;28;20039;-68
2023/09/14 05:44:36;;;;;;;21.42;9.07;;;;;;;;;;5092480;28;20028;-67
2023/09/14 05:47:02;;;;;;;23.13;9.82;;;;;;;;;;5092111;28;20032;-65
2023/09/14 05:49:29;;;;;;;27.60;10.05;;;;;;;;;;5072197;28;20075;-66
2023/09/14 05:51:55;;;;;;;25.05;11.27;;;;;;;;;;5072427;28;20135;-67
2023/09/14 05:54:20;;;;;;;21.90;9.00;;;;;;;;;;5073068;28;20546;-68
2023/09/14 05:56:46;;;;;;;29.80;10.52;;;;;;;;;;5071521;28;20032;-67
2023/09/14 05:59:12;;;;;;;24.85;10.52;;;;;;;;;;5071987;28;20050;-67
2023/09/14 06:01:38;;;;;;;31.45;9.50;;;;;;;;;;5088984;28;20359;-66
2023/09/14 06:04:03;;;;;;;34.13;9.82;;;;;;;;;;5071529;28;20036;-67
2023/09/14 06:06:29;;;;;;;27.52;10.25;;;;;;;;;;5069204;28;20055;-67
2023/09/14 06:08:55;;;;;;;22.70;9.90;;;;;;;;;;5087714;28;20043;-66
2023/09/14 06:11:21;;;;;;;31.00;11.07;;;;;;;;;;5071981;28;20391;-67
2023/09/14 06:13:46;;;;;;;31.10;9.85;;;;;;;;;;5070646;28;20041;-67
2023/09/14 06:16:12;;;;;;;27.48;8.85;;;;;;;;;;5054551;28;20451;-66
2023/09/14 06:18:39;;;;;;;22.23;8.05;;;;;;;;;;5072007;28;20036;-66
2023/09/14 06:21:05;;;;;;;25.63;8.07;;;;;;;;;;5055173;28;20032;-67
2023/09/14 06:23:30;;;;;;;22.02;8.27;;;;;;;;;;5055476;28;20127;-67
2023/09/14 06:25:56;;;;;;;20.02;8.13;;;;;;;;;;5038767;28;20036;-66
2023/09/14 06:28:22;;;;;;;21.13;8.55;;;;;;;;;;5054932;28;20024;-67
2023/09/14 06:30:47;;;;;;;23.70;8.35;;;;;;;;;;5055062;28;20172;-67
2023/09/14 06:33:13;;;;;;;16.75;7.93;;;;;;;;;;5055107;28;20035;-67
2023/09/14 06:35:39;;;;;;;17.50;8.07;;;;;;;;;;5071873;28;20123;-66
2023/09/14 06:38:04;;;;;;;19.67;7.07;;;;;;;;;;5071849;28;20489;-67
2023/09/14 06:40:30;;;;;;;19.15;7.20;;;;;;;;;;5055182;28;20059;-68
2023/09/14 06:42:57;;;;;;;24.42;7.45;;;;;;;;;;5071510;28;20406;-67
2023/09/14 06:45:25;;;;;;;17.00;7.03;;;;;;;;;;5038137;28;20468;-68
2023/09/14 06:47:50;;;;;;;18.38;6.65;;;;;;;;;;5054731;28;20123;-67
2023/09/14 06:50:16;;;;;;;14.27;6.10;;;;;;;;;;5073391;28;20131;-67
2023/09/14 06:52:43;;;;;;;11.27;5.55;;;;;;;;;;5055339;28;20036;-67
2023/09/14 06:55:08;;;;;;;15.20;5.63;;;;;;;;;;5055059;28;20051;-67
2023/09/14 06:57:35;;;;;;;19.83;5.82;;;;;;;;;;5038164;28;20033;-68
2023/09/14 07:00:01;;;;;;;13.10;4.45;;;;;;;;;;5071668;28;20182;-67
2023/09/14 07:02:26;;;;;;;17.88;5.00;;;;;;;;;;5071430;28;20082;-67
2023/09/14 07:04:53;;;;;;;11.93;4.68;;;;;;;;;;5072556;28;20032;-68
2023/09/14 07:07:19;;;;;;;12.98;4.20;;;;;;;;;;5074023;28;20054;-67
2023/09/14 07:09:45;;;;;;;9.45;4.20;;;;;;;;;;5071704;28;20119;-67
2023/09/14 07:12:10;;;;;;;9.40;4.72;;;;;;;;;;5071339;28;20475;-67
2023/09/14 07:14:36;;;;;;;12.48;4.03;;;;;;;;;;5072452;28;20055;-67
2023/09/14 07:17:01;;;;;;;11.32;3.97;;;;;;;;;;5071831;28;20459;-67
2023/09/14 07:19:29;;;;;;;10.93;4.00;;;;;;;;;;5071015;28;20039;-67
2023/09/14 07:21:55;;;;;;;12.82;4.40;;;;;;;;;;5070943;28;20573;-68
2023/09/14 07:24:21;;;;;;;10.30;4.30;;;;;;;;;;5071020;28;20352;-67
2023/09/14 07:26:47;;;;;;;12.88;4.25;;;;;;;;;;5073037;28;20050;-67
2023/09/14 07:29:13;;;;;;;11.90;3.60;;;;;;;;;;5072479;28;20485;-68
2023/09/14 07:31:39;;;;;;;15.07;4.15;;;;;;;;;;5070904;28;20531;-68
2023/09/14 07:34:05;;;;;;;10.20;3.30;;;;;;;;;;5054177;28;20064;-72
2023/09/14 07:36:33;;;;;;;9.35;3.35;;;;;;;;;;5071120;28;20068;-69
2023/09/14 07:38:59;;;;;;;12.50;3.08;;;;;;;;;;5054097;28;20489;-69
2023/09/14 07:41:26;;;;;;;8.50;2.80;;;;;;;;;;5071405;28;20048;-70
2023/09/14 07:43:52;;;;;;;11.23;3.03;;;;;;;;;;5070547;28;20036;-71
2023/09/14 07:46:19;;;;;;;10.18;2.55;;;;;;;;;;5037352;28;20043;-70
2023/09/14 07:48:45;;;;;;;8.27;2.85;;;;;;;;;;5037086;28;20912;-69
2023/09/14 07:51:10;;;;;;;9.65;3.08;;;;;;;;;;5070476;28;20126;-69
2023/09/14 07:53:36;;;;;;;9.52;2.92;;;;;;;;;;5053783;28;20036;-70
2023/09/14 07:56:02;;;;;;;18.30;3.00;;;;;;;;;;5079654;28;20055;-71
2023/09/14 07:58:28;;;;;;;8.55;2.03;;;;;;;;;;5070837;28;20334;-70
2023/09/14 08:00:54;;;;;;;8.30;2.50;;;;;;;;;;5088893;28;20462;-71
2023/09/14 08:03:20;;;;;;;7.75;2.42;;;;;;;;;;5091181;28;20035;-69
2023/09/14 08:05:46;;;;;;;4.80;2.30;;;;;;;;;;5092060;28;20093;-71
2023/09/14 08:08:12;;;;;;;4.22;2.22;;;;;;;;;;5087711;28;20060;-69
2023/09/14 08:10:37;;;;;;;8.80;2.60;;;;;;;;;;5093208;28;20028;-70
2023/09/14 08:13:03;;;;;;;3.85;2.20;;;;;;;;;;5093981;28;20410;-70
2023/09/14 08:15:29;;;;;;;5.20;2.13;;;;;;;;;;5108399;28;20044;-71
2023/09/14 08:17:55;;;;;;;5.38;2.10;;;;;;;;;;5091314;28;20123;-70
2023/09/14 08:20:20;;;;;;;5.55;2.10;;;;;;;;;;5074623;28;20119;-72
2023/09/14 08:22:48;;;;;;;4.28;2.25;;;;;;;;;;5091906;28;20127;-70
2023/09/14 08:25:16;;;;;;;2.53;1.70;;;;;;;;;;5091652;28;20040;-72
2023/09/14 08:27:48;;;;;;;6.78;2.17;;;;;;;;;;5074629;28;20031;-71
2023/09/14 08:30:16;;;;;;;10.18;2.40;;;;;;;;;;5076335;28;20385;-69
2023/09/14 08:32:49;;;;;;;13.45;2.67;;;;;;;;;;5094740;28;20117;-70
2023/09/14 08:35:23;;;;;;;11.85;2.60;;;;;;;;;;5077529;28;20044;-69
2023/09/14 08:37:50;;;;;;;9.30;2.13;;;;;;;;;;5093457;28;20490;-73
2023/09/14 08:40:17;;;;;;;9.90;2.20;;;;;;;;;;5110115;28;20130;-70
2023/09/14 08:42:47;;;;;;;6.53;1.85;;;;;;;;;;5076201;28;20455;-69
2023/09/14 08:45:15;;;;;;;4.93;1.95;;;;;;;;;;5076022;28;20036;-71
2023/09/14 08:47:41;;;;;;;7.18;2.13;;;;;;;;;;5092960;28;20036;-69
2023/09/14 08:50:13;;;;;;;10.85;2.35;;;;;;;;;;5075972;28;20032;-72
2023/09/14 08:52:40;;;;;;;4.05;2.25;;;;;;;;;;5093112;28;20058;-73
2023/09/14 08:55:06;;;;;;;3.75;1.83;;;;;;;;;;5093935;28;20028;-70
2023/09/14 08:57:32;;;;;;;8.52;2.40;;;;;;;;;;5109683;28;20351;-71
2023/09/14 08:59:59;;;;;;;6.60;2.15;;;;;;;;;;5092886;28;20028;-70
2023/09/14 09:02:27;;;;;;;4.95;2.10;;;;;;;;;;5094134;28;20176;-69
2023/09/14 09:04:53;;;;;;;7.28;1.77;;;;;;;;;;5092976;28;20048;-69
2023/09/14 09:07:20;;;;;;;6.97;2.00;;;;;;;;;;5093910;28;20051;-69
2023/09/14 09:09:48;;;;;;;7.93;1.73;;;;;;;;;;5076411;28;20416;-70
2023/09/14 09:12:14;;;;;;;3.00;1.85;;;;;;;;;;5092650;28;20056;-70
2023/09/14 09:14:40;;;;;;;5.78;2.00;;;;;;;;;;5075862;28;20038;-72
2023/09/14 09:17:06;;;;;;;5.25;2.10;;;;;;;;;;5094014;28;20043;-69
2023/09/14 09:19:45;;;;;;;3.83;2.28;;;;;;;;;;5093784;28;20032;-69
2023/09/14 09:22:11;;;;;;;7.85;2.30;;;;;;;;;;5092714;28;20039;-72
2023/09/14 09:24:38;;;;;;;4.15;2.13;;;;;;;;;;5092894;28;20475;-69
2023/09/14 09:27:23;;;;;;;5.05;2.08;;;;;;;;;;5092836;28;20040;-69
2023/09/14 09:29:56;;;;;;;6.82;2.10;;;;;;;;;;5092514;28;20043;-69
2023/09/14 09:32:22;;;;;;;10.68;2.30;;;;;;;;;;5092352;28;20126;-71
2023/09/14 09:34:47;;;;;;;9.07;2.90;;;;;;;;;;5058981;28;20040;-68
2023/09/14 09:37:18;;;;;;;5.35;2.38;;;;;;;;;;5093229;28;20032;-68
2023/09/14 09:39:44;;;;;;;4.90;2.05;;;;;;;;;;5106623;28;20055;-68
2023/09/14 09:42:13;;;;;;;6.63;2.10;;;;;;;;;;5070088;28;20067;-69
2023/09/14 09:44:39;;;;;;;5.82;1.90;;;;;;;;;;5092031;28;20108;-68
2023/09/14 09:47:05;;;;;;;3.50;1.90;;;;;;;;;;5091795;28;20177;-69
2023/09/14 09:49:31;;;;;;;3.60;2.10;;;;;;;;;;5086928;28;20058;-68
2023/09/14 09:51:57;;;;;;;3.08;2.00;;;;;;;;;;5092352;28;20482;-68
2023/09/14 09:54:24;;;;;;;3.65;2.20;;;;;;;;;;5075073;28;20039;-68
2023/09/14 09:56:51;;;;;;;6.53;2.33;;;;;;;;;;5091545;28;20036;-68
2023/09/14 09:59:19;;;;;;;6.35;2.22;;;;;;;;;;5073616;28;20058;-69
2023/09/14 10:01:45;;;;;;;4.32;2.17;;;;;;;;;;5074025;28;20032;-70
2023/09/14 10:04:13;;;;;;;6.10;2.25;;;;;;;;;;5091016;28;20040;-71
2023/09/14 10:06:40;;;;;;;5.25;2.25;;;;;;;;;;5074120;28;20043;-69
2023/09/14 10:09:10;;;;;;;4.10;2.25;;;;;;;;;;5073652;28;20139;-70
2023/09/14 10:11:36;;;;;;;8.13;2.50;;;;;;;;;;5091341;28;20052;-69
2023/09/14 10:14:03;;;;;;;6.15;2.47;;;;;;;;;;5091521;28;20450;-70
2023/09/14 10:16:30;;;;;;;4.82;2.15;;;;;;;;;;5093157;28;20039;-68
2023/09/14 10:18:57;;;;;;;3.10;2.75;;;;;;;;;;5092900;28;20476;-70
2023/09/14 10:21:25;;;;;;;11.88;2.20;;;;;;;;;;5092063;28;20040;-70
2023/09/14 10:23:52;;;;;;;4.45;2.70;;;;;;;;;;5092444;28;20032;-69
2023/09/14 10:26:18;;;;;;;9.90;2.10;;;;;;;;;;5090853;28;20471;-70
2023/09/14 10:28:44;;;;;;;5.90;2.10;;;;;;;;;;5108737;28;20046;-71
2023/09/14 10:31:11;;;;;;;4.53;1.90;;;;;;;;;;5074106;28;20048;-71
2023/09/14 10:33:37;;;;;;;10.07;1.90;;;;;;;;;;5092076;28;20360;-70
2023/09/14 10:36:04;;;;;;;4.90;2.08;;;;;;;;;;5091225;28;20031;-70
2023/09/14 10:38:32;;;;;;;4.25;1.85;;;;;;;;;;5092181;28;20047;-70
2023/09/14 10:40:58;;;;;;;5.03;2.20;;;;;;;;;;5091322;28;20032;-69
2023/09/14 10:43:25;;;;;;;4.40;2.08;;;;;;;;;;5092419;28;20047;-71
2023/09/14 10:45:58;;;;;;;;;;;;;;;;;;5092040;28;20089;-71
2023/09/14 10:48:29;;;;;;;6.63;2.60;;;;;;;;;;5092143;28;19912;-69
2023/09/14 10:50:54;;;;;;;3.97;2.10;;;;;;;;;;5091128;28;20039;-71
2023/09/14 10:53:22;;;;;;;4.40;2.10;;;;;;;;;;5091840;28;20032;-69
2023/09/14 10:55:48;;;;;;;6.32;2.30;;;;;;;;;;5090366;28;20032;-69
2023/09/14 10:58:16;;;;;;;8.25;2.58;;;;;;;;;;5057364;28;20042;-69
2023/09/14 11:00:44;;;;;;;11.98;3.13;;;;;;;;;;5090999;28;20477;-69
2023/09/14 11:03:10;;;;;;;6.93;2.67;;;;;;;;;;5092588;28;20073;-68
2023/09/14 11:05:43;;;;;;;2.97;2.30;;;;;;;;;;5074412;28;20047;-66
2023/09/14 11:08:09;;;;;;;3.42;2.35;;;;;;;;;;5090099;28;20455;-67
2023/09/14 11:10:37;;;;;;;9.07;3.05;;;;;;;;;;5108170;28;20093;-68
2023/09/14 11:13:21;;;;;;;4.15;2.50;;;;;;;;;;5091315;28;20071;-69
2023/09/14 11:15:53;;;;;;;4.03;2.58;;;;;;;;;;5074575;28;20055;-68
2023/09/14 11:18:19;;;;;;;8.25;2.90;;;;;;;;;;5091215;28;20127;-68
2023/09/14 11:20:47;;;;;;;3.85;2.88;;;;;;;;;;5069795;28;20110;-70
2023/09/14 11:23:13;;;;;;;5.18;2.80;;;;;;;;;;5036709;28;20491;-68
2023/09/14 11:25:41;;;;;;;5.00;2.78;;;;;;;;;;5071187;28;20090;-68
2023/09/14 11:28:07;;;;;;;5.28;2.88;;;;;;;;;;5054968;28;20029;-69
2023/09/14 11:30:41;;;;;;;10.98;2.58;;;;;;;;;;5070548;28;20182;-68
2023/09/14 11:33:08;;;;;;;6.38;2.47;;;;;;;;;;5053645;28;20065;-69
2023/09/14 11:35:37;;;;;;;6.25;2.72;;;;;;;;;;5053540;28;20118;-68
2023/09/14 11:38:12;;;;;;;3.28;2.47;;;;;;;;;;5072056;28;20080;-68
2023/09/14 11:40:38;;;;;;;6.60;2.83;;;;;;;;;;5040466;28;20049;-70
2023/09/14 11:43:34;;;;;;;7.45;2.85;;;;;;;;;;5057060;28;20083;-68
2023/09/14 11:46:00;;;;;;;5.38;2.40;;;;;;;;;;5024448;28;20048;-68
2023/09/14 11:48:32;;;;;;;6.10;2.80;;;;;;;;;;5074447;28;20036;-69
2023/09/14 11:51:03;;;;;;;8.20;3.03;;;;;;;;;;5030021;28;20478;-68
2023/09/14 11:53:37;;;;;;;6.75;2.80;;;;;;;;;;5095715;28;20109;-68
2023/09/14 11:56:03;;;;;;;6.07;2.90;;;;;;;;;;5095409;28;20105;-68
2023/09/14 11:58:33;;;;;;;9.52;3.53;;;;;;;;;;5073898;28;20459;-69
2023/09/14 12:00:58;;;;;;;10.60;3.00;;;;;;;;;;5073893;28;20045;-69
2023/09/14 12:03:26;;;;;;;5.05;2.60;;;;;;;;;;5056972;28;20051;-72
2023/09/14 12:05:54;;;;;;;4.82;3.05;;;;;;;;;;5056687;28;20063;-68
2023/09/14 12:08:20;;;;;;;5.53;2.80;;;;;;;;;;5056861;28;20047;-70
2023/09/14 12:10:50;;;;;;;14.45;3.35;;;;;;;;;;5023477;28;20131;-68
2023/09/14 12:13:16;;;;;;;;;;;;;;;;;;5040210;28;20049;-68
2023/09/14 12:15:42;;;;;;;9.60;3.03;;;;;;;;;;5073309;28;19919;-68
2023/09/14 12:18:10;;;;;;;10.77;3.13;;;;;;;;;;5022798;28;20056;-69
2023/09/14 12:20:40;;;;;;;8.35;3.65;;;;;;;;;;5072756;28;20124;-67
2023/09/14 12:23:09;;;;;;;8.85;3.72;;;;;;;;;;5056643;28;20527;-69
2023/09/14 12:25:37;;;;;;;11.80;2.78;;;;;;;;;;5035911;28;20492;-67
2023/09/14 12:28:04;;;;;;;7.72;3.25;;;;;;;;;;5052551;28;20553;-68
2023/09/14 12:30:31;;;;;;;4.97;2.97;;;;;;;;;;5054510;28;20044;-65
2023/09/14 12:32:59;;;;;;;6.95;3.42;;;;;;;;;;5056114;28;20044;-66
2023/09/14 12:35:26;;;;;;;7.13;2.78;;;;;;;;;;5022307;28;20048;-66
2023/09/14 12:37:58;;;;;;;3.85;2.72;;;;;;;;;;5039355;28;20044;-68
2023/09/14 12:40:25;;;;;;;6.10;2.85;;;;;;;;;;5039302;28;20047;-67
2023/09/14 12:42:53;;;;;;;4.43;3.15;;;;;;;;;;5038576;28;20044;-68
2023/09/14 12:45:20;;;;;;;5.47;3.03;;;;;;;;;;4963981;28;20492;-72
2023/09/14 12:47:47;;;;;;;7.15;3.42;;;;;;;;;;5013009;28;20041;-67
2023/09/14 12:50:16;;;;;;;8.30;3.55;;;;;;;;;;5011594;28;20089;-65
2023/09/14 12:52:43;;;;;;;5.50;3.25;;;;;;;;;;4995571;28;20037;-68
2023/09/14 12:55:12;;;;;;;4.00;2.97;;;;;;;;;;4964132;28;20054;-67
2023/09/14 12:57:38;;;;;;;11.95;3.50;;;;;;;;;;5030515;28;20049;-68
2023/09/14 13:00:17;;;;;;;8.02;3.30;;;;;;;;;;5018776;28;20045;-71
2023/09/14 13:02:44;;;;;;;13.07;3.45;;;;;;;;;;5035518;28;20353;-68
2023/09/14 13:05:14;;;;;;;6.90;3.08;;;;;;;;;;5051324;28;20065;-67
2023/09/14 13:07:48;;;;;;;8.47;3.40;;;;;;;;;;5018859;28;20029;-66
2023/09/14 13:10:21;;;;;;;9.45;3.20;;;;;;;;;;5019582;28;20139;-66
2023/09/14 13:12:51;;;;;;;17.98;3.03;;;;;;;;;;5036202;28;20115;-68
2023/09/14 13:15:22;;;;;;;7.67;3.10;;;;;;;;;;5020871;28;20043;-67
2023/09/14 13:17:58;;;;;;;12.20;3.20;;;;;;;;;;5056379;28;20298;-67
2023/09/14 13:20:30;;;;;;;12.85;3.22;;;;;;;;;;5084088;28;20084;-67
2023/09/14 13:22:57;;;;;;;9.98;3.22;;;;;;;;;;5092297;28;20077;-67
2023/09/14 13:25:27;;;;;;;10.98;3.30;;;;;;;;;;5091804;28;20067;-69
2023/09/14 13:27:53;;;;;;;14.73;3.97;;;;;;;;;;5075353;28;20462;-68
2023/09/14 13:30:20;;;;;;;12.77;3.75;;;;;;;;;;5092134;28;20032;-68
2023/09/14 13:32:46;;;;;;;6.57;3.40;;;;;;;;;;5073253;28;20162;-67
2023/09/14 13:35:13;;;;;;;5.93;3.33;;;;;;;;;;5091997;28;20039;-67
2023/09/14 13:37:41;;;;;;;14.75;3.85;;;;;;;;;;5075234;28;20428;-67
2023/09/14 13:40:18;;;;;;;12.18;2.90;;;;;;;;;;5035431;28;20036;-68
2023/09/14 13:42:48;;;;;;;6.75;2.80;;;;;;;;;;5029728;28;20036;-68
2023/09/14 13:45:14;;;;;;;7.45;3.50;;;;;;;;;;5037337;28;20045;-68
2023/09/14 13:47:40;;;;;;;11.32;3.90;;;;;;;;;;5030326;28;20037;-69
2023/09/14 13:50:08;;;;;;;9.95;3.40;;;;;;;;;;5011714;28;20050;-67
2023/09/14 13:52:34;;;;;;;3.92;2.70;;;;;;;;;;5014496;28;20041;-67
2023/09/14 13:55:00;;;;;;;7.55;3.55;;;;;;;;;;4996122;28;20182;-67
2023/09/14 13:57:26;;;;;;;7.30;3.10;;;;;;;;;;5014347;28;20072;-67
2023/09/14 13:59:51;;;;;;;8.25;3.17;;;;;;;;;;4997764;28;20101;-68
2023/09/14 14:02:17;;;;;;;11.02;2.90;;;;;;;;;;4994129;28;20038;-67
2023/09/14 14:04:43;;;;;;;6.13;3.75;;;;;;;;;;4997301;28;20053;-67
2023/09/14 14:07:10;;;;;;;6.13;2.72;;;;;;;;;;4980539;28;20522;-67
2023/09/14 14:09:36;;;;;;;9.52;2.78;;;;;;;;;;4997565;28;20490;-67
2023/09/14 14:12:02;;;;;;;10.02;2.88;;;;;;;;;;5032333;28;20052;-67
2023/09/14 14:14:28;;;;;;;8.10;2.88;;;;;;;;;;5047750;28;20044;-67
2023/09/14 14:16:53;;;;;;;6.05;2.50;;;;;;;;;;5070109;28;20050;-73
2023/09/14 14:19:19;;;;;;;4.70;2.50;;;;;;;;;;5042994;28;20087;-67
2023/09/14 14:21:46;;;;;;;7.95;2.72;;;;;;;;;;5057604;28;20059;-67
2023/09/14 14:24:19;;;;;;;10.43;2.70;;;;;;;;;;5086740;28;20067;-69
2023/09/14 14:26:45;;;;;;;8.40;3.53;;;;;;;;;;5073685;28;20044;-69
2023/09/14 14:29:11;;;;;;;9.18;2.97;;;;;;;;;;5056380;28;20085;-68
2023/09/14 14:31:37;;;;;;;13.43;3.20;;;;;;;;;;5090576;28;20036;-67